Hlavní strana
METAR-TAF:

METAR-TAF

Letiště :

Letiště Franjo Tuđmana

Záhřeb, Chorvatsko

zeměpisná šířka: 45-44N, zeměpisná délka: 016-04E, výška: 106 m

Aktuální stav počasí

Zpráva byla vytvořena před 31 minutami, v 07:30 UTC
vítr z různých směrů 3 kt
Teplota 21°C
Vlhkost vzduchu 78%
Tlak 1021 hPa
Viditelnost 10 km a více
Skoro jasno ve výšce 1000 ft

METAR: LDZA 260730Z VRB03KT 9999 FEW010 21/17 Q1021 NOSIG

Čas: 10:01 (08:01 UTC)

Předpověď počasí

Zpráva byla vytvořena před 2 hodinami a 36 minutami, v 05:25 UTC
Předpověď platná od 26 v 06 UTC do 27 v 06 UTC
vítr z různých směrů 2 kt
Viditelnost 10 km a více
Polojasno ve výšce 2500 ft
Pravděpodobnost 30% :
Dočasný
od 26 v 12 UTC do 26 v 17 UTC
Skoro jasno ve výšce 5000 ft, Vertikální cumulus.
dešťové přeháňky

TAF: LDZA 260525Z 2606/2706 VRB02KT 9999 SCT025 TX26/2613Z TN14/2702Z PROB30 TEMPO 2612/2617 SHRA FEW050TCU

Stav a předpovědi počasí z více než 4 000 letišť (zprávy METAR a TAF).

Červené a žluté tečky na mapě představují dostupné meteorologické stanice.

Když kurzor umístíte na tečku, zobrazí se název stanice.

Pak kliknutím zobrazíte stav a předpověď počasí.

Chcete-li změnit mapu, kliknutím na zelené tlačítko se znaménkem +mapu přiblížíte, kliknutím na zelené tlačítko se znaménkem – mapu oddálíte a kliknutím na zelené šipky přejdete na sousední mapy.


METAR-TAF: